Time;durP1;ratioP1;P1;durP2;ratioP2;P2;SDS_P1;SDS_P2;PMS_P1;PMS_P2;Temp;Humidity;BMP_temperature;BMP_pressure;BME280_temperature;BME280_humidity;BME280_pressure;Samples;Min_cycle;Max_cycle;Signal;HPM_P1;HPM_P2
2022/06/09 00:01:41;;;;;;;48.97;26.00;;;;;;;-148.88;100.00;74985.13;5039905;28;20095;-78
2022/06/09 00:04:15;;;;;;;49.95;28.02;;;;;;;-148.88;100.00;74977.00;5040010;28;20498;-79
2022/06/09 00:06:51;;;;;;;53.13;30.08;;;;;;;-148.88;100.00;74985.13;5039977;28;20082;-78
2022/06/09 00:09:20;;;;;;;48.53;30.58;;;;;;;-148.88;100.00;74989.19;5038717;28;20367;-78
2022/06/09 00:11:49;;;;;;;51.03;32.10;;;;;;;-148.88;100.00;74983.09;5040143;28;20045;-78
2022/06/09 00:14:15;;;;;;;54.35;32.97;;;;;;;-148.88;100.00;74993.25;5040018;28;20394;-79
2022/06/09 00:16:41;;;;;;;60.97;36.22;;;;;;;-148.88;100.00;74991.22;5038934;28;20029;-77
2022/06/09 00:19:07;;;;;;;61.70;35.40;;;;;;;-148.88;100.00;75001.38;5036073;28;20025;-78
2022/06/09 00:21:34;;;;;;;63.13;36.45;;;;;;;-148.88;100.00;74997.31;5037357;28;20033;-79
2022/06/09 00:23:59;;;;;;;71.90;38.50;;;;;;;-148.88;100.00;75001.38;5037544;28;20099;-78
2022/06/09 00:26:24;;;;;;;66.40;37.75;;;;;;;-148.88;100.00;75001.38;5038350;28;20021;-78
2022/06/09 00:28:50;;;;;;;68.75;37.33;;;;;;;-148.88;100.00;74997.31;5039245;28;20025;-78
2022/06/09 00:31:15;;;;;;;75.45;37.53;;;;;;;-148.88;100.00;75013.56;5039665;28;20021;-79
2022/06/09 00:33:40;;;;;;;74.57;39.33;;;;;;;-148.88;100.00;75013.56;5039612;28;20105;-78
2022/06/09 00:36:06;;;;;;;70.63;37.13;;;;;;;-148.88;100.00;75017.63;5039690;28;20470;-79
2022/06/09 00:38:31;;;;;;;76.40;38.95;;;;;;;-148.88;100.00;75017.63;5039669;28;20071;-78
2022/06/09 00:40:59;;;;;;;76.88;39.83;;;;;;;-148.88;100.00;75011.53;5038171;28;20108;-78
2022/06/09 00:43:25;;;;;;;75.90;39.58;;;;;;;-148.88;100.00;75015.59;5038329;28;20037;-79
2022/06/09 00:46:15;;;;;;;73.82;39.35;;;;;;;-148.88;100.00;75015.59;5039590;28;20156;-78
2022/06/09 00:48:46;;;;;;;79.15;41.53;;;;;;;-148.88;100.00;75011.53;5038210;28;20064;-78
2022/06/09 00:51:25;;;;;;;73.93;41.35;;;;;;;-148.88;100.00;75017.63;5039129;28;20083;-79
2022/06/09 00:53:55;;;;;;;75.75;42.25;;;;;;;-148.88;100.00;75007.47;5037072;28;20028;-77
2022/06/09 00:56:20;;;;;;;86.95;43.65;;;;;;;-148.88;100.00;75009.50;5036350;28;20475;-78
2022/06/09 00:58:50;;;;;;;79.57;41.17;;;;;;;-148.88;100.00;75001.38;5035726;28;20020;-78
2022/06/09 01:01:17;;;;;;;74.00;40.03;;;;;;;-148.88;100.00;74997.31;5035721;28;20112;-78
2022/06/09 01:03:49;;;;;;;77.97;41.50;;;;;;;-148.88;100.00;75001.38;5037858;28;20028;-78
2022/06/09 01:06:20;;;;;;;76.05;41.85;;;;;;;-148.88;100.00;75005.44;5038244;28;20021;-78
2022/06/09 01:09:09;;;;;;;75.32;41.33;;;;;;;-148.88;100.00;75001.38;5053771;28;20482;-79
2022/06/09 01:11:35;;;;;;;79.68;40.95;;;;;;;-148.88;100.00;75001.38;5039613;28;20029;-78
2022/06/09 01:14:02;;;;;;;78.43;41.30;;;;;;;-148.88;100.00;75001.38;5054004;28;20031;-78
2022/06/09 01:16:43;;;;;;;81.28;40.17;;;;;;;-148.88;100.00;75007.47;5053835;28;20470;-78
2022/06/09 01:19:36;;;;;;;61.10;38.00;;;;;;;-148.88;100.00;75005.44;5037200;28;20029;-78
2022/06/09 01:22:44;;;;;;;74.20;38.55;;;;;;;-148.88;100.00;75017.63;5038849;28;20037;-79
2022/06/09 01:25:29;;;;;;;70.80;38.85;;;;;;;-148.88;100.00;75009.50;5039025;28;20029;-78
2022/06/09 01:28:37;;;;;;;69.45;39.50;;;;;;;-148.88;100.00;75021.69;5054541;28;20029;-79
2022/06/09 01:31:25;;;;;;;64.82;37.65;;;;;;;-148.88;100.00;75015.59;5037761;28;20099;-78
2022/06/09 01:34:15;;;;;;;65.78;38.78;;;;;;;-148.88;100.00;75017.63;5051766;28;20025;-78
2022/06/09 01:37:04;;;;;;;59.03;35.95;;;;;;;-148.88;100.00;75013.56;5034694;28;20487;-78
2022/06/09 01:39:43;;;;;;;59.05;35.50;;;;;;;-148.88;100.00;75021.69;5036699;28;20041;-79
2022/06/09 01:42:31;;;;;;;63.22;34.80;;;;;;;-148.88;100.00;75023.72;5053166;28;20025;-78
2022/06/09 01:45:15;;;;;;;59.85;34.45;;;;;;;-148.88;100.00;75025.75;5038315;28;20021;-79
2022/06/09 01:47:47;;;;;;;60.08;33.45;;;;;;;-148.88;100.00;75019.66;5038040;28;20467;-78
2022/06/09 01:50:34;;;;;;;52.50;31.70;;;;;;;-148.88;100.00;75013.56;5038605;28;20035;-79
2022/06/09 01:53:04;;;;;;;54.25;31.48;;;;;;;-148.88;100.00;75011.53;5038204;28;20104;-78
2022/06/09 01:55:33;;;;;;;52.28;31.20;;;;;;;-148.88;100.00;75019.66;5035941;28;20025;-78
2022/06/09 01:58:01;;;;;;;49.47;30.73;;;;;;;-148.88;100.00;75013.56;5038096;28;20033;-79
2022/06/09 02:00:28;;;;;;;52.70;29.73;;;;;;;-148.88;100.00;75009.50;5036643;28;20526;-79
2022/06/09 02:03:01;;;;;;;53.35;31.50;;;;;;;-148.88;100.00;75009.50;5037414;28;20433;-78
2022/06/09 02:05:32;;;;;;;50.80;29.60;;;;;;;-148.88;100.00;75017.63;5053524;28;20098;-78
2022/06/09 02:08:02;;;;;;;47.45;28.40;;;;;;;-148.88;100.00;75015.59;5037735;28;20087;-78
2022/06/09 02:10:27;;;;;;;52.67;30.38;;;;;;;-148.88;100.00;75025.75;5034199;28;20399;-77
2022/06/09 02:12:53;;;;;;;53.15;30.40;;;;;;;-148.88;100.00;75017.63;5035427;28;20025;-77
2022/06/09 02:15:24;;;;;;;52.88;29.20;;;;;;;-148.88;100.00;75025.75;5034712;28;20018;-78
2022/06/09 02:17:50;;;;;;;49.40;29.15;;;;;;;-148.88;100.00;75025.75;5036345;28;20037;-78
2022/06/09 02:20:19;;;;;;;52.22;29.45;;;;;;;-148.88;100.00;75021.69;5036367;28;20394;-78
2022/06/09 02:22:44;;;;;;;52.00;30.30;;;;;;;-148.88;100.00;75025.75;5035904;28;20025;-78
2022/06/09 02:25:11;;;;;;;51.55;29.52;;;;;;;-148.88;100.00;75017.63;5036924;28;20040;-78
2022/06/09 02:27:37;;;;;;;52.00;28.50;;;;;;;-148.88;100.00;75019.66;5036702;28;20036;-78
2022/06/09 02:30:04;;;;;;;54.35;30.67;;;;;;;-148.88;100.00;75027.78;5036000;28;20085;-78
2022/06/09 02:32:29;;;;;;;46.50;28.48;;;;;;;-148.88;100.00;75021.69;5037869;28;20394;-78
2022/06/09 02:34:54;;;;;;;48.95;29.33;;;;;;;-148.88;100.00;75029.81;5036769;28;20486;-79
2022/06/09 02:37:20;;;;;;;50.88;28.52;;;;;;;-148.88;100.00;75031.84;5052577;28;20367;-78
2022/06/09 02:39:45;;;;;;;48.63;28.85;;;;;;;-148.88;100.00;75033.88;5035829;28;20052;-77
2022/06/09 02:42:10;;;;;;;47.83;27.98;;;;;;;-148.88;100.00;75033.88;5037032;28;20096;-78
2022/06/09 02:44:36;;;;;;;56.40;30.38;;;;;;;-148.88;100.00;75033.88;5036712;28;20098;-78
2022/06/09 02:47:01;;;;;;;54.17;29.13;;;;;;;-148.88;100.00;75029.81;5036488;28;20029;-77
2022/06/09 02:49:26;;;;;;;48.08;28.17;;;;;;;-148.88;100.00;75029.81;5033589;28;20108;-77
2022/06/09 02:51:54;;;;;;;52.05;28.27;;;;;;;-148.88;100.00;75033.88;5035291;28;20037;-77
2022/06/09 02:54:20;;;;;;;54.10;28.55;;;;;;;-148.88;100.00;75031.84;5035766;28;20024;-77
2022/06/09 02:56:46;;;;;;;46.45;27.98;;;;;;;-148.88;100.00;75029.81;5035575;28;20024;-78
2022/06/09 02:59:12;;;;;;;49.42;28.08;;;;;;;-148.88;100.00;75027.78;5035914;28;20401;-78
2022/06/09 03:01:37;;;;;;;51.35;27.50;;;;;;;-148.88;100.00;75029.81;5036580;28;20470;-78
2022/06/09 03:04:05;;;;;;;46.90;27.42;;;;;;;-148.88;100.00;75029.81;5036786;28;20470;-78
2022/06/09 03:06:30;;;;;;;45.35;27.50;;;;;;;-148.88;100.00;75021.69;5052944;28;20025;-78
2022/06/09 03:08:56;;;;;;;46.88;28.40;;;;;;;-148.88;100.00;75021.69;5036573;28;20037;-78
2022/06/09 03:11:21;;;;;;;52.83;29.10;;;;;;;-148.88;100.00;75023.72;5037444;28;20525;-77
2022/06/09 03:13:47;;;;;;;48.00;28.75;;;;;;;-148.88;100.00;75033.88;5038096;28;20024;-78
2022/06/09 03:16:16;;;;;;;50.30;28.55;;;;;;;-148.88;100.00;75039.97;5052715;28;20502;-78
2022/06/09 03:18:43;;;;;;;50.28;28.00;;;;;;;-148.88;100.00;75039.97;5035792;28;20376;-78
2022/06/09 03:21:09;;;;;;;49.58;28.02;;;;;;;-148.88;100.00;75044.03;5061137;23;20029;-77
2022/06/09 03:23:34;;;;;;;50.45;28.00;;;;;;;-148.88;100.00;75054.19;5042045;23;20179;-77
2022/06/09 03:26:00;;;;;;;49.67;28.48;;;;;;;-148.88;100.00;75048.09;5032482;28;20036;-76
2022/06/09 03:28:25;;;;;;;48.47;28.17;;;;;;;-148.88;100.00;75052.16;5032305;28;20482;-76
2022/06/09 03:30:51;;;;;;;46.50;28.20;;;;;;;-148.88;100.00;75048.09;5032645;28;20033;-76
2022/06/09 03:33:16;;;;;;;51.63;28.60;;;;;;;-148.88;100.00;75058.25;5032707;28;20079;-76
2022/06/09 03:35:42;;;;;;;50.95;30.17;;;;;;;-148.88;100.00;75060.28;5032382;28;20105;-77
2022/06/09 03:38:08;;;;;;;44.25;28.10;;;;;;;-148.88;100.00;75056.22;5033241;28;20382;-77
2022/06/09 03:40:33;;;;;;;50.70;30.02;;;;;;;-148.88;100.00;75064.34;5032883;28;20025;-77
2022/06/09 03:43:02;;;;;;;47.97;27.60;;;;;;;-148.88;100.00;75066.38;5032653;28;20362;-77
2022/06/09 03:45:28;;;;;;;55.42;29.63;;;;;;;-148.88;100.00;75070.44;5032641;28;20048;-77
2022/06/09 03:47:53;;;;;;;50.58;28.23;;;;;;;-148.88;100.00;75078.56;5032629;28;20386;-76
2022/06/09 03:50:21;;;;;;;52.03;29.30;;;;;;;-148.88;100.00;75076.53;5032506;28;20055;-76
2022/06/09 03:52:48;;;;;;;49.17;28.20;;;;;;;-148.88;100.00;75074.50;5032291;28;20029;-76
2022/06/09 03:55:14;;;;;;;42.58;27.98;;;;;;;-148.88;100.00;75076.53;5032369;28;20040;-76
2022/06/09 03:57:39;;;;;;;49.95;28.42;;;;;;;-148.88;100.00;75082.63;5032178;28;20021;-76
2022/06/09 04:00:08;;;;;;;53.50;29.13;;;;;;;-148.88;100.00;75086.69;5032222;28;20393;-77
2022/06/09 04:02:33;;;;;;;46.38;27.63;;;;;;;-148.88;100.00;75088.72;5030896;28;20450;-76
2022/06/09 04:05:01;;;;;;;50.40;27.55;;;;;;;-148.88;100.00;75090.72;5032101;28;20053;-76
2022/06/09 04:07:27;;;;;;;46.03;26.95;;;;;;;-148.88;100.00;75092.78;5032005;28;20014;-77
2022/06/09 04:09:53;;;;;;;46.30;26.80;;;;;;;-148.88;100.00;75096.81;5032154;28;20138;-76
2022/06/09 04:12:18;;;;;;;46.85;26.45;;;;;;;-148.88;100.00;75094.81;5032346;28;20102;-77
2022/06/09 04:14:43;;;;;;;49.22;27.80;;;;;;;-148.88;100.00;75100.88;5032640;28;20479;-77
2022/06/09 04:17:11;;;;;;;41.55;26.95;;;;;;;-148.88;100.00;75111.03;5032360;28;20471;-77
2022/06/09 04:19:37;;;;;;;42.83;27.40;;;;;;;-148.88;100.00;75104.94;5032245;28;20029;-77
2022/06/09 04:22:03;;;;;;;45.25;28.15;;;;;;;-148.88;100.00;75115.09;5032735;28;20029;-79
2022/06/09 04:24:28;;;;;;;46.75;27.67;;;;;;;-148.88;100.00;75115.09;5035388;28;20026;-77
2022/06/09 04:26:54;;;;;;;43.58;28.13;;;;;;;-148.88;100.00;75119.16;5035573;28;20025;-76
2022/06/09 04:29:19;;;;;;;46.55;29.20;;;;;;;-148.88;100.00;75119.16;5037122;28;20037;-77
2022/06/09 04:31:45;;;;;;;47.17;28.42;;;;;;;-148.88;100.00;75117.13;5037018;28;20426;-77
2022/06/09 04:34:10;;;;;;;48.20;28.30;;;;;;;-148.88;100.00;75119.16;5035803;28;20203;-77
2022/06/09 04:36:36;;;;;;;40.95;26.40;;;;;;;-148.88;100.00;75113.06;5037531;28;20466;-77
2022/06/09 04:39:04;;;;;;;44.40;26.75;;;;;;;-148.88;100.00;75115.09;5040444;28;20026;-77
2022/06/09 04:41:29;;;;;;;44.08;26.83;;;;;;;-148.88;100.00;75113.06;5039715;28;20028;-77
2022/06/09 04:43:58;;;;;;;41.00;26.02;;;;;;;-148.88;100.00;75121.19;5055303;28;20029;-77
2022/06/09 04:46:24;;;;;;;45.35;25.80;;;;;;;-148.88;100.00;75117.13;5041063;28;20024;-77
2022/06/09 04:48:50;;;;;;;41.22;26.58;;;;;;;-148.88;100.00;75121.19;5040410;28;20037;-78
2022/06/09 04:51:18;;;;;;;45.40;25.73;;;;;;;-148.88;100.00;75119.16;5041860;28;20037;-77
2022/06/09 04:53:44;;;;;;;43.88;25.83;;;;;;;-148.88;100.00;75123.22;5041773;28;20091;-78
2022/06/09 04:56:10;;;;;;;42.25;25.35;;;;;;;-148.88;100.00;75115.09;5040174;28;20025;-77
2022/06/09 04:58:38;;;;;;;36.05;24.05;;;;;;;-148.88;100.00;75129.31;5041377;28;20021;-78
2022/06/09 05:01:12;;;;;;;39.47;26.30;;;;;;;-148.88;100.00;75131.34;5039301;28;20079;-77
2022/06/09 05:03:38;;;;;;;38.95;25.23;;;;;;;-148.88;100.00;75133.38;5041408;28;20056;-77
2022/06/09 05:06:03;;;;;;;42.33;24.80;;;;;;;-148.88;100.00;75135.41;5039008;28;20029;-77
2022/06/09 05:08:29;;;;;;;43.00;25.27;;;;;;;-148.88;100.00;75147.59;5039282;28;20171;-77
2022/06/09 05:10:54;;;;;;;41.10;26.25;;;;;;;-148.88;100.00;75147.59;5040145;28;20044;-77
2022/06/09 05:13:20;;;;;;;38.60;24.80;;;;;;;-148.88;100.00;75141.50;5039240;28;20025;-77
2022/06/09 05:15:51;;;;;;;42.00;25.70;;;;;;;-148.88;100.00;75143.53;5040092;28;20033;-77
2022/06/09 05:18:18;;;;;;;43.25;24.75;;;;;;;-148.88;100.00;75141.50;5039346;28;20018;-77
2022/06/09 05:20:43;;;;;;;41.53;25.33;;;;;;;-148.88;100.00;75143.53;5054702;28;20037;-77
2022/06/09 05:23:09;;;;;;;39.50;25.27;;;;;;;-148.88;100.00;75139.47;5055971;28;20040;-77
2022/06/09 05:25:34;;;;;;;42.78;24.40;;;;;;;-148.88;100.00;75141.50;5035689;28;20422;-77
2022/06/09 05:27:59;;;;;;;37.50;24.30;;;;;;;-148.88;100.00;75149.63;5041411;28;20017;-80
2022/06/09 05:30:25;;;;;;;40.35;26.08;;;;;;;-148.88;100.00;75151.66;5042941;28;20047;-80
2022/06/09 05:32:51;;;;;;;38.92;24.95;;;;;;;-148.88;100.00;75147.59;5042901;28;20083;-80
2022/06/09 05:35:18;;;;;;;40.83;25.73;;;;;;;-148.88;100.00;75143.53;5043301;28;20048;-80
2022/06/09 05:46:09;;;;;;;37.38;23.90;;;;;;;-148.88;100.00;75135.41;4998433;28;20081;-79
2022/06/09 05:48:35;;;;;;;41.45;23.60;;;;;;;-148.88;100.00;75127.28;5051546;28;20028;-79
2022/06/09 05:51:01;;;;;;;37.90;23.58;;;;;;;-148.88;100.00;75123.22;5035599;28;20029;-79
2022/06/09 05:53:26;;;;;;;33.97;22.80;;;;;;;-148.88;100.00;75129.31;5034201;28;20033;-79
2022/06/09 05:55:52;;;;;;;39.67;22.13;;;;;;;-148.88;100.00;75125.25;5035933;28;20029;-79
2022/06/09 05:58:17;;;;;;;35.35;21.38;;;;;;;-148.88;100.00;75117.13;5035707;28;20018;-79
2022/06/09 06:00:43;;;;;;;34.65;20.73;;;;;;;-148.88;100.00;75115.09;5038213;28;20032;-80
2022/06/09 06:03:11;;;;;;;34.90;19.30;;;;;;;-148.88;100.00;75115.09;5042833;28;20032;-80
2022/06/09 06:08:20;;;;;;;35.75;20.48;;;;;;;-148.88;100.00;75121.19;5041932;28;20029;-80
2022/06/09 06:10:45;;;;;;;35.90;20.70;;;;;;;-148.88;100.00;75119.16;5040066;28;20029;-80
2022/06/09 06:13:12;;;;;;;37.40;20.77;;;;;;;-148.88;100.00;75115.09;5043087;28;20047;-80
2022/06/09 06:15:37;;;;;;;31.40;19.35;;;;;;;-148.88;100.00;75125.25;5042365;28;20366;-79
2022/06/09 06:18:03;;;;;;;31.73;19.77;;;;;;;-148.88;100.00;75127.28;5042400;28;20518;-80
2022/06/09 06:20:30;;;;;;;32.60;19.20;;;;;;;-148.88;100.00;75119.16;5037107;28;20025;-79
2022/06/09 06:22:55;;;;;;;34.35;20.63;;;;;;;-148.88;100.00;75119.16;5033947;28;20458;-79
2022/06/09 06:25:22;;;;;;;33.67;20.13;;;;;;;-148.88;100.00;75113.06;5032592;28;20500;-79
2022/06/09 06:27:47;;;;;;;37.20;19.77;;;;;;;-148.88;100.00;75111.03;5034132;28;20026;-79
2022/06/09 06:30:13;;;;;;;36.72;19.52;;;;;;;-148.88;100.00;75102.91;5034547;28;20374;-79
2022/06/09 06:32:38;;;;;;;25.08;18.70;;;;;;;-148.88;100.00;75098.84;5033852;28;20128;-79
2022/06/09 06:35:04;;;;;;;27.55;17.27;;;;;;;-148.88;100.00;75102.91;5035455;28;20116;-79
2022/06/09 06:37:29;;;;;;;30.73;18.92;;;;;;;-148.88;100.00;75106.97;5050432;28;20017;-79
2022/06/09 06:39:55;;;;;;;27.15;17.00;;;;;;;-148.88;100.00;75096.81;5041680;28;20040;-79
2022/06/09 06:42:20;;;;;;;30.02;18.35;;;;;;;-148.88;100.00;75106.97;5040989;28;20021;-80
2022/06/09 06:44:45;;;;;;;26.52;17.88;;;;;;;-148.88;100.00;75109.00;5040652;28;20029;-80
2022/06/09 06:47:11;;;;;;;29.02;17.67;;;;;;;-148.88;100.00;75106.97;5041056;28;20083;-80
2022/06/09 06:49:36;;;;;;;25.98;17.23;;;;;;;-148.88;100.00;75104.94;5039978;28;20091;-80
2022/06/09 06:52:02;;;;;;;28.50;17.13;;;;;;;-148.88;100.00;75115.09;5041505;28;20051;-79
2022/06/09 06:54:27;;;;;;;30.83;17.73;;;;;;;-148.88;100.00;75117.13;5042221;28;20029;-79
2022/06/09 06:56:52;;;;;;;28.70;18.02;;;;;;;-148.88;100.00;75113.06;5041344;28;20084;-79
2022/06/09 06:59:18;;;;;;;29.42;17.58;;;;;;;-148.88;100.00;75098.84;5026212;28;20033;-81
2022/06/09 07:01:43;;;;;;;27.23;17.15;;;;;;;-148.88;100.00;75102.91;5012992;28;20026;-81
2022/06/09 07:04:09;;;;;;;29.48;17.05;;;;;;;-148.88;100.00;75084.66;5012868;28;20033;-80
2022/06/09 07:06:34;;;;;;;27.88;15.70;;;;;;;-148.88;100.00;75082.63;5012825;28;20100;-78
2022/06/09 07:08:59;;;;;;;30.13;15.75;;;;;;;-148.88;100.00;75078.56;5026078;28;20038;-78
2022/06/09 07:11:24;;;;;;;27.73;15.32;;;;;;;-148.88;100.00;75082.63;5032380;28;20048;-78
2022/06/09 07:13:52;;;;;;;26.70;15.95;;;;;;;-148.88;100.00;75068.41;5032255;28;20032;-78
2022/06/09 07:16:17;;;;;;;29.90;16.15;;;;;;;-148.88;100.00;75074.50;5029811;28;20075;-79
2022/06/09 07:18:43;;;;;;;23.95;15.95;;;;;;;-148.88;100.00;75086.69;5034343;28;20017;-78
2022/06/09 07:21:09;;;;;;;26.60;15.75;;;;;;;-148.88;100.00;75074.50;5033727;28;20112;-78
2022/06/09 07:23:35;;;;;;;24.27;14.90;;;;;;;-148.88;99.67;75070.44;5049412;28;20065;-78
2022/06/09 07:26:01;;;;;;;23.63;14.70;;;;;;;-148.88;99.58;75054.19;5034408;28;20104;-81
2022/06/09 07:28:27;;;;;;;22.58;14.35;;;;;;;-148.88;98.98;75062.31;5034855;28;20025;-81
2022/06/09 07:30:56;;;;;;;24.92;14.15;;;;;;;-148.88;98.58;75052.16;5036013;28;20026;-81
2022/06/09 07:33:28;;;;;;;21.67;13.70;;;;;;;-148.88;97.92;75062.31;5035495;28;20017;-81
2022/06/09 07:35:54;;;;;;;22.75;14.38;;;;;;;-148.88;98.02;75062.31;5048518;28;20021;-80
2022/06/09 07:38:20;;;;;;;23.40;14.13;;;;;;;-148.88;98.43;75044.03;5031248;28;20108;-80
2022/06/09 07:40:46;;;;;;;21.98;14.10;;;;;;;-148.88;97.07;75058.25;5033458;28;20029;-80
2022/06/09 07:43:11;;;;;;;20.27;13.02;;;;;;;-148.88;97.63;75062.31;5032820;28;20043;-80
2022/06/09 07:45:38;;;;;;;20.77;13.63;;;;;;;-148.88;97.53;75054.19;5031333;28;20029;-81
2022/06/09 07:48:04;;;;;;;21.77;13.88;;;;;;;-148.88;96.75;75052.16;5032367;28;20071;-80
2022/06/09 07:50:31;;;;;;;22.05;14.98;;;;;;;-148.88;97.19;75062.31;5032287;28;20029;-81
2022/06/09 07:52:57;;;;;;;25.13;14.68;;;;;;;-148.88;96.30;75062.31;5032403;28;20057;-80
2022/06/09 07:55:22;;;;;;;21.67;14.15;;;;;;;-148.88;97.90;75062.31;5033614;28;20456;-81
2022/06/09 07:57:48;;;;;;;19.77;13.88;;;;;;;-148.88;96.90;75062.31;5034445;28;20044;-80
2022/06/09 08:00:14;;;;;;;24.25;14.18;;;;;;;-148.88;96.82;75074.50;5033819;28;20021;-78
2022/06/09 08:02:42;;;;;;;19.85;13.20;;;;;;;-148.88;96.53;75088.72;5035916;28;20021;-78
2022/06/09 08:05:08;;;;;;;24.20;13.93;;;;;;;-148.88;97.10;75074.50;5035823;28;20029;-78
2022/06/09 08:07:33;;;;;;;21.45;13.63;;;;;;;-148.88;96.36;75070.44;5037014;28;20021;-78
2022/06/09 08:09:59;;;;;;;24.85;13.38;;;;;;;-148.88;96.06;75066.38;5037028;28;20033;-78
2022/06/09 08:12:24;;;;;;;22.83;12.52;;;;;;;-148.88;96.40;75058.25;5036937;28;20108;-79
2022/06/09 08:14:49;;;;;;;25.60;13.57;;;;;;;-148.88;96.01;75076.53;5051040;28;20128;-78
2022/06/09 08:17:14;;;;;;;25.83;13.85;;;;;;;-148.88;96.62;75070.44;5035739;28;20100;-78
2022/06/09 08:19:40;;;;;;;22.35;13.80;;;;;;;-148.88;97.14;75090.72;5051084;28;20116;-78
2022/06/09 08:22:05;;;;;;;23.42;13.82;;;;;;;-148.88;97.56;75082.63;5035622;28;20499;-78
2022/06/09 08:24:33;;;;;;;23.08;14.05;;;;;;;-148.88;96.78;75082.63;5035487;28;20032;-78
2022/06/09 08:27:00;;;;;;;21.08;14.07;;;;;;;-148.88;98.02;75074.50;5035659;28;20052;-79
2022/06/09 08:29:26;;;;;;;21.23;14.45;;;;;;;-148.88;96.91;75072.47;5034284;28;20075;-79
2022/06/09 08:31:52;;;;;;;23.55;14.27;;;;;;;-148.88;97.06;75074.50;5035913;28;20034;-79
2022/06/09 08:34:17;;;;;;;19.52;13.45;;;;;;;-148.88;96.79;75068.41;5035989;28;20116;-80
2022/06/09 08:36:44;;;;;;;22.13;12.90;;;;;;;-148.88;95.16;75070.44;5036046;28;20025;-80
2022/06/09 08:39:09;;;;;;;20.50;11.93;;;;;;;-148.88;93.67;75058.25;5036231;28;20037;-80
2022/06/09 08:41:51;;;;;;;16.23;11.75;;;;;;;-148.88;93.31;75042.00;5035551;28;20025;-80
2022/06/09 08:44:27;;;;;;;16.23;10.88;;;;;;;-148.88;92.32;75037.94;5051200;28;20037;-80
2022/06/09 08:47:14;;;;;;;22.75;11.85;;;;;;;-148.88;91.39;75017.63;5036452;28;20025;-80
2022/06/09 08:49:39;;;;;;;17.10;11.82;;;;;;;-148.88;92.19;75005.44;5036100;28;20073;-79
2022/06/09 08:52:13;;;;;;;20.55;12.25;;;;;;;-148.88;92.97;75025.75;5035342;28;20029;-79
2022/06/09 08:54:40;;;;;;;20.35;12.15;;;;;;;-148.88;91.02;75017.63;5035139;28;20018;-79
2022/06/09 08:57:17;;;;;;;18.30;10.40;;;;;;;-148.88;91.38;75025.75;5035388;28;20048;-79
2022/06/09 08:59:45;;;;;;;14.27;9.57;;;;;;;-148.88;90.79;74995.28;5018144;28;20033;-79
2022/06/09 09:02:27;;;;;;;16.40;9.73;;;;;;;-148.88;89.12;74934.38;5012987;28;20022;-79
2022/06/09 09:05:11;;;;;;;15.95;10.60;;;;;;;-148.88;88.36;74932.34;5013982;28;20064;-79
2022/06/09 09:07:41;;;;;;;14.95;9.93;;;;;;;-148.88;88.99;74932.34;5015091;28;20026;-79
2022/06/09 09:10:18;;;;;;;17.05;10.68;;;;;;;-148.88;89.52;74956.69;5015530;28;20030;-79
2022/06/09 09:13:05;;;;;;;17.98;9.38;;;;;;;-148.88;87.32;74932.34;5016858;28;20030;-80
2022/06/09 09:15:39;;;;;;;14.25;8.95;;;;;;;-148.88;85.25;74940.47;5018674;28;20090;-80
2022/06/09 09:18:22;;;;;;;17.23;9.60;;;;;;;-148.88;85.84;74932.34;5017571;28;20018;-80
2022/06/09 09:21:04;;;;;;;15.80;9.63;;;;;;;-148.88;85.29;74899.84;5018763;28;20029;-80
2022/06/09 09:23:46;;;;;;;13.68;9.73;;;;;;;-148.88;85.74;74879.53;5053643;23;20519;-85
2022/06/09 09:26:32;;;;;;;16.63;9.75;;;;;;;-148.88;83.59;74851.09;4997191;28;20073;-88
2022/06/09 09:29:08;;;;;;;12.52;8.93;;;;;;;-148.88;84.55;74824.69;4996479;28;20026;-87
2022/06/09 09:31:55;;;;;;;15.50;8.13;;;;;;;-148.88;81.93;74830.78;4998496;28;20041;-86
2022/06/09 09:34:33;;;;;;;13.02;7.50;;;;;;;-148.88;81.46;74816.56;4993157;28;20099;-85
2022/06/09 09:37:32;;;;;;;10.52;7.72;;;;;;;-148.88;80.90;74847.03;4977943;28;20058;-86
2022/06/09 09:40:19;;;;;;;13.38;8.57;;;;;;;-148.88;79.64;74834.84;4974705;28;20098;-88
2022/06/09 09:42:46;;;;;;;10.65;7.45;;;;;;;-148.88;78.93;74784.09;4976384;28;20038;-88
2022/06/09 09:45:12;;;;;;;11.07;7.22;;;;;;;-148.88;77.56;74794.25;4992280;28;20504;-87
2022/06/09 09:47:54;;;;;;;10.88;6.88;;;;;;;-148.88;78.31;74790.19;4976598;28;20026;-87
2022/06/09 09:50:38;;;;;;;9.03;6.30;;;;;;;-148.88;80.55;74745.50;4977933;28;20050;-86
2022/06/09 09:53:20;;;;;;;10.27;6.07;;;;;;;-148.88;76.80;74706.91;4976360;28;20050;-87
2022/06/09 09:55:59;;;;;;;9.32;6.38;;;;;;;-148.88;74.03;74729.25;4976970;28;20031;-86
2022/06/09 09:58:34;;;;;;;7.82;6.18;;;;;;;-148.88;72.89;74731.28;4975632;28;20019;-86
2022/06/09 10:01:27;;;;;;;9.95;6.93;;;;;;;-148.88;74.94;74710.97;4977077;28;20023;-86
2022/06/09 10:09:48;;;;;;;8.05;5.72;;;;;;;-148.88;72.52;74710.97;4976719;28;20041;-86
2022/06/09 10:12:26;;;;;;;10.27;5.72;;;;;;;-148.88;74.19;74623.66;4976308;28;20026;-88
2022/06/09 10:14:57;;;;;;;7.93;5.03;;;;;;;-148.88;75.33;74595.25;4975917;28;20489;-88
2022/06/09 10:17:38;;;;;;;7.70;4.55;;;;;;;-148.88;70.71;74676.47;4991589;28;20116;-88
2022/06/09 10:20:36;;;;;;;6.00;4.25;;;;;;;-148.88;71.08;74761.75;4974822;28;20081;-90
2022/06/09 10:23:09;;;;;;;8.13;4.75;;;;;;;-148.88;73.15;74788.16;4990172;28;20030;-89
2022/06/09 10:25:59;;;;;;;7.40;4.68;;;;;;;-148.88;72.08;74780.03;4974824;28;20054;-90
2022/06/09 10:28:27;;;;;;;7.15;4.80;;;;;;;-148.88;72.37;74802.38;4976414;28;20035;-90
2022/06/09 10:31:22;;;;;;;9.18;5.25;;;;;;;-148.88;73.54;74845.00;4976480;28;20034;-90
2022/06/09 10:33:58;;;;;;;10.23;5.20;;;;;;;-148.88;72.85;74765.81;4973160;28;20042;-87
2022/06/09 10:36:50;;;;;;;6.25;4.90;;;;;;;-148.88;69.31;74708.94;4974626;28;20548;-88
2022/06/09 10:39:47;;;;;;;7.32;4.40;;;;;;;-148.88;67.36;74635.84;4974384;28;20053;-89
2022/06/09 10:42:22;;;;;;;5.78;3.95;;;;;;;-148.88;70.58;74690.69;4974166;28;20023;-88
2022/06/09 10:45:15;;;;;;;4.97;2.90;;;;;;;-148.88;66.25;74700.84;4991176;28;20030;-86
2022/06/09 10:57:22;;;;;;;4.47;2.67;;;;;;;-148.88;66.17;74607.41;4975472;28;20504;-88
2022/06/09 10:59:58;;;;;;;4.07;2.38;;;;;;;-148.88;58.83;74601.31;4989921;28;20019;-89
2022/06/09 11:02:27;;;;;;;4.47;2.30;;;;;;;-148.88;60.00;74570.88;4974096;28;20556;-89
2022/06/09 11:04:54;;;;;;;2.55;1.70;;;;;;;-148.88;58.12;74650.06;4990353;28;20531;-87
2022/06/09 11:08:00;;;;;;;3.42;1.60;;;;;;;-148.88;62.58;74755.66;4974214;28;20113;-88
2022/06/09 11:10:53;;;;;;;5.35;2.10;;;;;;;-148.88;63.62;74790.19;4943554;28;20046;-87
2022/06/09 11:13:43;;;;;;;4.22;1.77;;;;;;;-148.88;63.91;74806.44;4989580;28;20054;-87
2022/06/09 11:16:24;;;;;;;4.53;2.42;;;;;;;-148.88;65.00;74773.94;4989702;28;20544;-88
2022/06/09 11:19:18;;;;;;;5.20;2.20;;;;;;;-148.88;62.48;74733.31;4973615;28;20027;-87
2022/06/09 11:21:57;;;;;;;3.35;1.80;;;;;;;-148.88;63.62;74725.19;4989689;28;20031;-86
2022/06/09 11:24:32;;;;;;;4.93;2.20;;;;;;;-148.88;63.01;74761.75;4973783;28;20549;-86
2022/06/09 11:27:10;;;;;;;4.88;1.90;;;;;;;-148.88;65.33;74773.94;4990084;28;20091;-87
2022/06/09 11:29:49;;;;;;;2.70;1.90;;;;;;;-148.88;64.75;74806.44;4974778;28;20030;-88
2022/06/09 11:32:41;;;;;;;4.75;1.73;;;;;;;-148.88;66.70;74822.66;4974528;28;20034;-87
2022/06/09 11:35:18;;;;;;;4.38;2.25;;;;;;;-148.88;66.26;74847.03;4973641;28;20496;-88
2022/06/09 11:38:05;;;;;;;5.15;1.88;;;;;;;-148.88;67.45;74836.88;4977575;28;20027;-88
2022/06/09 11:40:45;;;;;;;4.07;1.67;;;;;;;-148.88;65.96;74810.50;4977682;28;20033;-87
2022/06/09 11:43:21;;;;;;;4.65;1.88;;;;;;;-148.88;63.91;74751.59;4993430;28;20027;-87